createdAt,value
2018-07-02T00:01:14.448Z,17.40
2018-07-02T00:03:42.476Z,17.40
2018-07-02T00:06:34.813Z,17.30
2018-07-02T00:09:03.161Z,17.20
2018-07-02T00:11:31.396Z,17.20
2018-07-02T00:16:27.824Z,17.10
2018-07-02T00:18:55.920Z,17.10
2018-07-02T00:21:23.969Z,17.10
2018-07-02T00:23:52.288Z,17.10
2018-07-02T00:26:20.379Z,17.10
2018-07-02T00:28:48.449Z,17.10
2018-07-02T00:31:16.486Z,17.00
2018-07-02T00:33:44.875Z,17.00
2018-07-02T00:36:13.096Z,17.00
2018-07-02T00:43:37.799Z,16.90
2018-07-02T00:46:05.895Z,16.80
2018-07-02T00:48:33.963Z,16.80
2018-07-02T00:51:02.043Z,16.90
2018-07-02T00:53:30.129Z,16.80
2018-07-02T00:55:58.275Z,16.80
2018-07-02T00:58:26.411Z,16.70
2018-07-02T01:00:54.540Z,16.60
2018-07-02T01:03:22.692Z,16.60
2018-07-02T01:05:50.758Z,16.60
2018-07-02T01:08:18.833Z,16.60
2018-07-02T01:10:46.880Z,16.60
2018-07-02T01:13:21.919Z,16.60
2018-07-02T01:15:49.956Z,16.50
2018-07-02T01:18:20.113Z,16.40
2018-07-02T01:25:44.371Z,16.40
2018-07-02T01:28:12.419Z,16.40
2018-07-02T01:30:43.022Z,16.40
2018-07-02T01:33:12.229Z,16.40
2018-07-02T01:35:40.397Z,16.40
2018-07-02T01:38:08.432Z,16.40
2018-07-02T01:40:36.508Z,16.40
2018-07-02T01:43:04.552Z,16.40
2018-07-02T01:45:32.584Z,16.40
2018-07-02T01:48:01.633Z,16.30
2018-07-02T01:50:30.092Z,16.40
2018-07-02T01:52:58.131Z,16.30
2018-07-02T01:55:26.236Z,16.30
2018-07-02T01:57:54.392Z,16.30
2018-07-02T02:00:22.482Z,16.20
2018-07-02T02:02:50.513Z,16.10
2018-07-02T02:05:18.565Z,16.10
2018-07-02T02:07:46.668Z,16.10
2018-07-02T02:10:14.709Z,16.10
2018-07-02T02:15:10.624Z,15.90
2018-07-02T02:17:38.844Z,15.80
2018-07-02T02:20:06.879Z,15.80
2018-07-02T02:22:34.956Z,15.80
2018-07-02T02:25:04.649Z,15.70
2018-07-02T02:27:32.830Z,15.70
2018-07-02T02:30:01.129Z,15.70
2018-07-02T02:32:29.201Z,15.70
2018-07-02T02:34:57.256Z,15.70
2018-07-02T02:37:25.312Z,15.60
2018-07-02T02:39:53.338Z,15.60
2018-07-02T02:42:21.412Z,15.50
2018-07-02T02:44:49.508Z,15.50
2018-07-02T02:49:53.256Z,15.40
2018-07-02T02:54:49.154Z,15.40
2018-07-02T02:59:51.820Z,15.30
2018-07-02T03:02:19.904Z,15.30
2018-07-02T03:04:47.946Z,15.30
2018-07-02T03:07:16.009Z,15.30
2018-07-02T03:09:44.095Z,15.30
2018-07-02T03:12:12.179Z,15.30
2018-07-02T03:14:40.247Z,15.20
2018-07-02T03:17:08.336Z,15.20
2018-07-02T03:19:36.415Z,15.20
2018-07-02T03:22:04.509Z,15.20
2018-07-02T03:24:32.540Z,15.10
2018-07-02T03:27:00.576Z,15.10
2018-07-02T03:29:28.789Z,15.00
2018-07-02T03:31:56.864Z,15.00
2018-07-02T03:34:24.920Z,15.10
2018-07-02T03:36:53.589Z,15.00
2018-07-02T03:39:21.677Z,15.00
2018-07-02T03:41:49.749Z,15.00
2018-07-02T03:44:17.822Z,15.10
2018-07-02T03:46:45.856Z,15.10
2018-07-02T03:49:13.994Z,15.10
2018-07-02T03:51:42.137Z,15.10
2018-07-02T03:54:10.273Z,15.10
2018-07-02T03:56:38.334Z,15.10
2018-07-02T03:59:06.390Z,15.10
2018-07-02T04:01:34.546Z,15.10
2018-07-02T04:04:02.620Z,15.10
2018-07-02T04:06:30.710Z,15.10
2018-07-02T04:08:58.774Z,15.10
2018-07-02T04:11:26.816Z,15.00
2018-07-02T04:13:55.030Z,15.00
2018-07-02T04:16:23.093Z,15.00
2018-07-02T04:18:55.408Z,14.90
2018-07-02T04:21:23.478Z,14.70
2018-07-02T04:23:51.527Z,14.70
2018-07-02T04:26:19.588Z,14.80
2018-07-02T04:28:47.618Z,14.90
2018-07-02T04:31:15.653Z,15.00
2018-07-02T04:33:43.700Z,15.00
2018-07-02T04:36:11.765Z,15.00
2018-07-02T04:38:39.784Z,14.90
2018-07-02T04:41:07.826Z,14.90
2018-07-02T04:43:35.852Z,15.00
2018-07-02T04:46:03.917Z,15.00
2018-07-02T04:48:32.233Z,15.00
2018-07-02T04:51:00.111Z,14.90
2018-07-02T04:53:28.144Z,14.90
2018-07-02T04:55:56.185Z,15.00
2018-07-02T04:58:24.244Z,15.10
2018-07-02T05:00:52.269Z,15.20
2018-07-02T05:03:20.307Z,15.10
2018-07-02T05:05:48.349Z,15.20
2018-07-02T05:08:16.409Z,15.30
2018-07-02T05:10:44.449Z,15.30
2018-07-02T05:15:40.381Z,15.30
2018-07-02T05:18:08.421Z,15.30
2018-07-02T05:20:36.456Z,15.50
2018-07-02T05:23:04.509Z,15.60
2018-07-02T05:25:32.565Z,15.60
2018-07-02T05:28:00.608Z,15.60
2018-07-02T05:30:28.730Z,15.70
2018-07-02T05:32:56.771Z,15.80
2018-07-02T05:35:24.864Z,15.80
2018-07-02T05:37:52.924Z,15.90
2018-07-02T05:40:21.750Z,16.00
2018-07-02T05:42:49.792Z,16.10
2018-07-02T05:45:17.882Z,16.20
2018-07-02T05:47:45.897Z,16.20
2018-07-02T05:50:13.923Z,16.20
2018-07-02T05:52:41.979Z,16.30
2018-07-02T05:55:10.019Z,16.30
2018-07-02T06:00:06.051Z,16.50
2018-07-02T06:02:34.268Z,16.40
2018-07-02T06:05:02.285Z,16.50
2018-07-02T06:07:30.313Z,16.50
2018-07-02T06:09:58.416Z,16.60
2018-07-02T06:12:26.485Z,16.60
2018-07-02T06:14:54.601Z,16.60
2018-07-02T06:17:22.717Z,16.60
2018-07-02T06:19:50.898Z,16.70
2018-07-02T06:22:18.937Z,16.70
2018-07-02T06:24:47.052Z,16.70
2018-07-02T06:29:42.993Z,16.80
2018-07-02T06:32:11.064Z,16.90
2018-07-02T06:34:39.155Z,17.00
2018-07-02T06:37:07.239Z,17.10
2018-07-02T06:39:35.272Z,17.30
2018-07-02T06:44:31.325Z,17.50
2018-07-02T06:49:27.417Z,17.70
2018-07-02T06:51:55.981Z,17.70
2018-07-02T06:54:24.020Z,17.80
2018-07-02T06:56:52.308Z,17.90
2018-07-02T06:59:20.341Z,18.00
2018-07-02T07:01:48.668Z,18.00
2018-07-02T07:04:16.708Z,18.10
2018-07-02T07:06:44.762Z,18.10
2018-07-02T07:09:13.120Z,18.20
2018-07-02T07:14:09.348Z,18.50
2018-07-02T07:16:37.538Z,18.70
2018-07-02T07:21:33.472Z,19.00
2018-07-02T07:24:01.554Z,19.20
2018-07-02T07:26:29.574Z,19.40
2018-07-02T07:28:57.624Z,19.70
2018-07-02T07:31:25.652Z,20.00
2018-07-02T07:33:53.705Z,20.40
2018-07-02T07:36:21.730Z,20.70
2018-07-02T07:38:49.783Z,20.90
2018-07-02T07:41:17.809Z,21.00
2018-07-02T07:46:13.700Z,21.50
2018-07-02T07:48:41.801Z,21.90
2018-07-02T07:51:10.101Z,22.00
2018-07-02T07:53:38.177Z,22.40
2018-07-02T07:56:06.367Z,22.80
2018-07-02T07:58:34.417Z,23.10
2018-07-02T08:01:02.461Z,23.20
2018-07-02T08:03:30.562Z,23.70
2018-07-02T08:05:58.599Z,24.10
2018-07-02T08:08:26.762Z,24.10
2018-07-02T08:10:54.817Z,24.30
2018-07-02T08:13:22.841Z,24.50
2018-07-02T08:15:50.965Z,24.90
2018-07-02T08:18:18.996Z,25.40
2018-07-02T08:20:47.349Z,25.90
2018-07-02T08:23:15.384Z,25.80
2018-07-02T08:25:43.447Z,25.50
2018-07-02T08:28:11.548Z,25.70
2018-07-02T08:30:39.592Z,25.70
2018-07-02T08:33:07.703Z,26.10
2018-07-02T08:35:35.702Z,26.40
2018-07-02T08:38:04.036Z,25.90
2018-07-02T08:40:32.089Z,25.20
2018-07-02T08:43:00.175Z,25.90
2018-07-02T08:45:28.237Z,26.10
2018-07-02T08:47:56.269Z,26.40
2018-07-02T08:50:24.327Z,27.00
2018-07-02T08:52:52.345Z,27.30
2018-07-02T08:55:20.393Z,27.40
2018-07-02T08:57:48.429Z,27.10
2018-07-02T09:00:16.566Z,27.00
2018-07-02T09:02:44.598Z,26.80
2018-07-02T09:05:12.639Z,27.20
2018-07-02T09:07:40.681Z,26.90
2018-07-02T09:10:08.841Z,26.20
2018-07-02T09:12:36.888Z,26.30
2018-07-02T09:15:05.120Z,26.40
2018-07-02T09:17:33.205Z,26.10
2018-07-02T09:20:01.250Z,26.70
2018-07-02T09:22:29.337Z,27.10
2018-07-02T09:24:57.378Z,27.20
2018-07-02T09:27:25.429Z,26.80
2018-07-02T09:29:53.501Z,26.50
2018-07-02T09:32:21.570Z,26.60
2018-07-02T09:34:49.537Z,27.10
2018-07-02T09:37:17.613Z,27.00
2018-07-02T09:39:45.671Z,27.10
2018-07-02T09:42:13.696Z,27.00
2018-07-02T09:44:41.744Z,27.30
2018-07-02T09:47:09.814Z,27.50
2018-07-02T09:49:37.856Z,27.50
2018-07-02T09:52:05.928Z,26.90
2018-07-02T09:54:33.973Z,26.80
2018-07-02T09:57:02.057Z,27.20
2018-07-02T09:59:30.128Z,27.30
2018-07-02T10:01:58.173Z,26.80
2018-07-02T10:04:26.244Z,26.80
2018-07-02T10:06:54.284Z,26.70
2018-07-02T10:09:22.368Z,26.20
2018-07-02T10:11:50.422Z,25.80
2018-07-02T10:14:18.487Z,25.60
2018-07-02T10:16:46.561Z,26.10
2018-07-02T10:19:14.621Z,26.70
2018-07-02T10:21:42.694Z,26.40
2018-07-02T10:24:10.860Z,26.20
2018-07-02T10:26:38.894Z,26.10
2018-07-02T10:29:06.928Z,25.90
2018-07-02T10:31:34.978Z,26.30
2018-07-02T10:34:03.036Z,26.80
2018-07-02T10:36:31.120Z,27.10
2018-07-02T10:38:59.191Z,27.10
2018-07-02T10:41:27.232Z,27.40
2018-07-02T10:43:55.256Z,26.50
2018-07-02T10:46:23.312Z,26.70
2018-07-02T10:48:51.364Z,27.10
2018-07-02T10:51:19.424Z,27.50
2018-07-02T10:53:47.498Z,28.00
2018-07-02T10:56:15.609Z,28.30
2018-07-02T10:58:43.741Z,28.50
2018-07-02T11:01:14.215Z,28.40
2018-07-02T11:03:42.455Z,28.40
2018-07-02T11:06:10.556Z,28.70
2018-07-02T11:08:40.022Z,28.90
2018-07-02T11:11:08.053Z,28.60
2018-07-02T11:13:36.176Z,28.10
2018-07-02T11:16:05.257Z,27.80
2018-07-02T11:18:33.344Z,27.20
2018-07-02T11:21:01.389Z,26.90
2018-07-02T11:23:29.465Z,27.00
2018-07-02T11:25:57.529Z,27.10
2018-07-02T11:30:53.540Z,27.10
2018-07-02T11:33:21.573Z,27.40
2018-07-02T11:35:49.640Z,27.40
2018-07-02T11:38:17.978Z,27.20
2018-07-02T11:40:46.294Z,27.20
2018-07-02T11:43:14.385Z,27.10
2018-07-02T11:45:42.492Z,27.10
2018-07-02T11:48:10.654Z,27.20
2018-07-02T11:50:38.808Z,27.30
2018-07-02T11:55:34.869Z,27.50
2018-07-02T11:58:02.976Z,27.60
2018-07-02T12:00:31.045Z,27.60
2018-07-02T12:02:59.213Z,27.50
2018-07-02T12:05:27.290Z,27.50
2018-07-02T12:07:55.324Z,27.50
2018-07-02T12:10:23.377Z,27.50
2018-07-02T12:12:51.500Z,27.50
2018-07-02T12:15:19.614Z,27.40
2018-07-02T12:20:15.552Z,27.00
2018-07-02T12:22:43.585Z,26.70
2018-07-02T12:25:11.661Z,26.70
2018-07-02T12:27:39.715Z,26.80
2018-07-02T12:30:14.345Z,26.70
2018-07-02T12:32:42.482Z,26.80
2018-07-02T12:35:12.171Z,26.80
2018-07-02T12:37:40.775Z,26.80
2018-07-02T12:40:08.800Z,26.80
2018-07-02T12:42:37.049Z,26.70
2018-07-02T12:45:05.470Z,26.70
2018-07-02T12:47:34.816Z,26.80
2018-07-02T12:52:31.921Z,26.80
2018-07-02T12:54:59.956Z,26.80
2018-07-02T12:57:28.022Z,26.70
2018-07-02T12:59:56.087Z,26.60
2018-07-02T13:02:24.159Z,26.60
2018-07-02T13:04:52.649Z,26.50
2018-07-02T13:07:20.832Z,26.50
2018-07-02T13:09:48.869Z,26.50
2018-07-02T13:12:16.934Z,26.40
2018-07-02T13:14:45.125Z,26.40
2018-07-02T13:17:13.156Z,26.40
2018-07-02T13:19:41.206Z,26.50
2018-07-02T13:22:09.268Z,26.30
2018-07-02T13:24:37.306Z,26.30
2018-07-02T13:27:05.361Z,26.30
2018-07-02T13:29:33.392Z,26.30
2018-07-02T13:32:02.045Z,26.30
2018-07-02T13:34:30.064Z,26.30
2018-07-02T13:36:58.124Z,26.40
2018-07-02T13:39:26.186Z,26.40
2018-07-02T13:41:54.269Z,26.40
2018-07-02T13:44:22.319Z,26.40
2018-07-02T13:46:50.357Z,26.30
2018-07-02T13:49:18.440Z,26.10
2018-07-02T13:51:46.464Z,26.10
2018-07-02T13:54:14.524Z,26.20
2018-07-02T13:56:42.545Z,26.10
2018-07-02T13:59:10.596Z,26.10
2018-07-02T14:01:38.636Z,26.20
2018-07-02T14:04:06.676Z,26.30
2018-07-02T14:06:34.790Z,26.40
2018-07-02T14:09:04.791Z,26.40
2018-07-02T14:11:33.029Z,26.30
2018-07-02T14:14:01.049Z,26.30
2018-07-02T14:16:29.126Z,26.20
2018-07-02T14:21:25.006Z,26.30
2018-07-02T14:23:53.021Z,26.30
2018-07-02T14:26:21.068Z,26.30
2018-07-02T14:28:49.689Z,26.30
2018-07-02T14:31:17.712Z,26.10
2018-07-02T14:33:45.745Z,26.10
2018-07-02T14:36:13.864Z,26.10
2018-07-02T14:38:41.924Z,26.20
2018-07-02T14:41:10.022Z,26.30
2018-07-02T14:43:38.449Z,26.30
2018-07-02T14:46:06.525Z,26.40
2018-07-02T14:48:34.561Z,26.40
2018-07-02T14:51:02.752Z,26.40
2018-07-02T14:53:30.740Z,26.40
2018-07-02T14:55:58.809Z,26.30
2018-07-02T14:58:26.928Z,26.30
2018-07-02T15:00:54.981Z,26.30
2018-07-02T15:03:23.036Z,26.30
2018-07-02T15:05:51.065Z,26.30
2018-07-02T15:08:19.126Z,26.20
2018-07-02T15:10:47.210Z,26.10
2018-07-02T15:13:15.272Z,26.10
2018-07-02T15:15:43.309Z,26.00
2018-07-02T15:18:11.379Z,25.90
2018-07-02T15:20:39.405Z,25.90
2018-07-02T15:23:07.433Z,25.90
2018-07-02T15:25:35.465Z,25.90
2018-07-02T15:28:03.512Z,25.90
2018-07-02T15:30:31.577Z,26.00
2018-07-02T15:32:59.772Z,26.00
2018-07-02T15:35:27.821Z,26.00
2018-07-02T15:37:55.890Z,26.00
2018-07-02T15:40:23.953Z,25.90
2018-07-02T15:42:52.049Z,25.90
2018-07-02T15:45:20.087Z,25.90
2018-07-02T15:47:49.176Z,25.90
2018-07-02T15:50:17.244Z,25.90
2018-07-02T15:52:45.272Z,25.80
2018-07-02T15:55:13.449Z,25.70
2018-07-02T15:57:41.569Z,25.70
2018-07-02T16:00:09.675Z,25.60
2018-07-02T16:02:37.756Z,25.60
2018-07-02T16:05:05.836Z,25.50
2018-07-02T16:07:34.266Z,25.50
2018-07-02T16:10:03.280Z,25.50
2018-07-02T16:14:59.329Z,25.40
2018-07-02T16:17:27.408Z,25.30
2018-07-02T16:19:55.921Z,25.30
2018-07-02T16:22:23.969Z,25.20
2018-07-02T16:24:52.033Z,25.20
2018-07-02T16:27:20.194Z,25.20
2018-07-02T16:29:48.256Z,25.20
2018-07-02T16:32:16.615Z,25.20
2018-07-02T16:34:44.652Z,25.10
2018-07-02T16:37:12.748Z,25.10
2018-07-02T16:39:40.801Z,25.00
2018-07-02T16:42:09.060Z,25.00
2018-07-02T16:44:37.121Z,25.00
2018-07-02T16:47:06.077Z,25.00
2018-07-02T16:49:34.737Z,25.00
2018-07-02T16:52:02.884Z,24.90
2018-07-02T16:54:30.989Z,24.90
2018-07-02T16:56:59.045Z,24.80
2018-07-02T16:59:27.120Z,24.70
2018-07-02T17:01:55.201Z,24.60
2018-07-02T17:04:27.326Z,24.60
2018-07-02T17:06:55.406Z,24.60
2018-07-02T17:09:23.590Z,24.50
2018-07-02T17:11:52.143Z,24.40
2018-07-02T17:14:20.209Z,24.30
2018-07-02T17:16:48.318Z,24.20
2018-07-02T17:19:16.392Z,24.10
2018-07-02T17:21:44.431Z,24.10
2018-07-02T17:24:12.501Z,24.10
2018-07-02T17:26:40.575Z,24.00
2018-07-02T17:29:08.615Z,23.90
2018-07-02T17:31:36.724Z,23.90
2018-07-02T17:34:04.813Z,23.90
2018-07-02T17:36:32.840Z,23.90
2018-07-02T17:39:01.528Z,23.80
2018-07-02T17:41:29.579Z,23.80
2018-07-02T17:43:57.636Z,23.70
2018-07-02T17:46:25.680Z,23.60
2018-07-02T17:48:53.845Z,23.60
2018-07-02T17:51:21.986Z,23.60
2018-07-02T17:53:50.060Z,23.50
2018-07-02T17:56:18.117Z,23.40
2018-07-02T17:58:46.315Z,23.40
2018-07-02T18:01:14.519Z,23.40
2018-07-02T18:03:42.580Z,23.40
2018-07-02T18:06:10.668Z,23.30
2018-07-02T18:08:38.778Z,23.30
2018-07-02T18:11:06.862Z,23.30
2018-07-02T18:13:35.050Z,23.30
2018-07-02T18:16:03.143Z,23.30
2018-07-02T18:18:31.173Z,23.20
2018-07-02T18:20:59.337Z,23.20
2018-07-02T18:23:27.377Z,23.20
2018-07-02T18:25:55.497Z,23.20
2018-07-02T18:28:23.579Z,23.10
2018-07-02T18:30:51.669Z,23.10
2018-07-02T18:33:19.819Z,23.00
2018-07-02T18:35:47.890Z,23.00
2018-07-02T18:38:15.952Z,23.00
2018-07-02T18:40:44.004Z,23.00
2018-07-02T18:43:12.364Z,22.90
2018-07-02T18:45:41.736Z,22.90
2018-07-02T18:48:09.907Z,22.90
2018-07-02T18:50:38.030Z,22.80
2018-07-02T18:53:06.576Z,22.80
2018-07-02T18:55:34.653Z,22.80
2018-07-02T18:58:03.160Z,22.70
2018-07-02T19:00:31.250Z,22.70
2018-07-02T19:03:01.077Z,22.60
2018-07-02T19:05:29.757Z,22.60
2018-07-02T19:07:57.838Z,22.50
2018-07-02T19:10:25.939Z,22.50
2018-07-02T19:12:53.980Z,22.40
2018-07-02T19:15:22.048Z,22.40
2018-07-02T19:17:50.142Z,22.30
2018-07-02T19:20:18.251Z,22.30
2018-07-02T19:25:14.622Z,22.20
2018-07-02T19:27:42.758Z,22.20
2018-07-02T19:30:10.897Z,22.10
2018-07-02T19:32:39.258Z,22.10
2018-07-02T19:35:08.582Z,22.00
2018-07-02T19:37:36.777Z,21.90
2018-07-02T19:40:10.388Z,21.90
2018-07-02T19:42:38.532Z,21.80
2018-07-02T19:45:12.141Z,21.70
2018-07-02T19:47:40.204Z,21.60
2018-07-02T19:50:09.711Z,21.60
2018-07-02T19:52:37.965Z,21.50
2018-07-02T19:55:06.447Z,21.50
2018-07-02T19:57:34.620Z,21.50
2018-07-02T20:00:02.796Z,21.40
2018-07-02T20:02:30.864Z,21.40
2018-07-02T20:04:59.764Z,21.30
2018-07-02T20:07:27.853Z,21.30
2018-07-02T20:09:56.005Z,21.20
2018-07-02T20:12:24.194Z,21.20
2018-07-02T20:14:52.473Z,21.20
2018-07-02T20:17:21.187Z,21.10
2018-07-02T20:19:49.409Z,21.10
2018-07-02T20:22:19.304Z,21.10
2018-07-02T20:24:47.398Z,21.00
2018-07-02T20:27:15.678Z,21.00
2018-07-02T20:29:43.748Z,20.90
2018-07-02T20:32:11.841Z,20.90
2018-07-02T20:34:39.910Z,20.80
2018-07-02T20:37:07.981Z,20.80
2018-07-02T20:39:36.046Z,20.70
2018-07-02T20:42:04.177Z,20.70
2018-07-02T20:44:32.246Z,20.60
2018-07-02T20:47:00.331Z,20.60
2018-07-02T20:49:28.444Z,20.50
2018-07-02T20:51:56.546Z,20.50
2018-07-02T20:54:24.593Z,20.40
2018-07-02T20:56:52.948Z,20.40
2018-07-02T20:59:21.062Z,20.30
2018-07-02T21:01:49.125Z,20.30
2018-07-02T21:06:45.664Z,20.10
2018-07-02T21:09:13.819Z,20.10
2018-07-02T21:11:41.889Z,20.00
2018-07-02T21:14:11.493Z,20.00
2018-07-02T21:16:39.841Z,20.00
2018-07-02T21:19:07.917Z,19.90
2018-07-02T21:21:36.615Z,19.90
2018-07-02T21:24:05.094Z,19.90
2018-07-02T21:26:33.315Z,19.80
2018-07-02T21:29:01.336Z,19.80
2018-07-02T21:31:29.424Z,19.80
2018-07-02T21:33:57.468Z,19.70
2018-07-02T21:36:25.595Z,19.70
2018-07-02T21:38:53.710Z,19.70
2018-07-02T21:41:21.780Z,19.70
2018-07-02T21:43:49.869Z,19.60
2018-07-02T21:46:17.984Z,19.60
2018-07-02T21:49:49.423Z,19.50
2018-07-02T21:52:17.504Z,19.50
2018-07-02T21:54:45.599Z,19.40
2018-07-02T21:57:13.629Z,19.40
2018-07-02T21:59:41.688Z,19.30
2018-07-02T22:02:09.840Z,19.30
2018-07-02T22:04:37.893Z,19.20
2018-07-02T22:07:05.971Z,19.20
2018-07-02T22:09:34.108Z,19.10
2018-07-02T22:12:02.147Z,19.10
2018-07-02T22:14:30.320Z,19.00
2018-07-02T22:16:58.939Z,19.00
2018-07-02T22:19:27.064Z,19.00
2018-07-02T22:21:55.468Z,19.00
2018-07-02T22:24:23.656Z,19.00
2018-07-02T22:26:52.425Z,19.00
2018-07-02T22:29:20.500Z,18.90
2018-07-02T22:31:48.569Z,18.90
2018-07-02T22:34:16.630Z,18.90
2018-07-02T22:36:44.674Z,18.80
2018-07-02T22:39:12.931Z,18.80
2018-07-02T22:41:41.044Z,18.70
2018-07-02T22:44:10.123Z,18.70
2018-07-02T22:46:38.243Z,18.70
2018-07-02T22:49:06.689Z,18.60
2018-07-02T22:51:35.635Z,18.70
2018-07-02T22:54:03.684Z,18.60
2018-07-02T22:56:31.870Z,18.60
2018-07-02T22:58:59.920Z,18.60
2018-07-02T23:01:27.981Z,18.60
2018-07-02T23:03:56.062Z,18.60
2018-07-02T23:06:24.116Z,18.50
2018-07-02T23:08:52.260Z,18.50
2018-07-02T23:13:48.209Z,18.50
2018-07-02T23:16:16.266Z,18.40
2018-07-02T23:18:44.332Z,18.30
2018-07-02T23:23:41.995Z,18.20
2018-07-02T23:26:10.137Z,18.20
2018-07-02T23:28:38.200Z,18.10
2018-07-02T23:31:06.248Z,18.20
2018-07-02T23:36:02.476Z,18.10
2018-07-02T23:38:30.573Z,18.00
2018-07-02T23:40:58.672Z,17.90
2018-07-02T23:43:26.722Z,17.90
2018-07-02T23:50:50.520Z,17.80
2018-07-02T23:53:19.665Z,17.80
2018-07-02T23:55:47.722Z,17.80
2018-07-02T23:58:15.768Z,17.80
